createdAt,value
2023-01-12T00:01:59.437Z,9.10
2023-01-12T00:04:30.863Z,9.09
2023-01-12T00:07:01.765Z,9.11
2023-01-12T00:09:28.603Z,9.11
2023-01-12T00:11:55.194Z,9.13
2023-01-12T00:14:21.825Z,9.15
2023-01-12T00:16:48.471Z,9.12
2023-01-12T00:19:17.390Z,9.19
2023-01-12T00:22:07.143Z,9.20
2023-01-12T00:24:36.616Z,9.19
2023-01-12T00:27:08.691Z,9.14
2023-01-12T00:29:35.992Z,9.18
2023-01-12T00:32:02.902Z,9.22
2023-01-12T00:34:30.054Z,9.27
2023-01-12T00:36:57.479Z,9.29
2023-01-12T00:39:23.967Z,9.30
2023-01-12T00:42:09.045Z,9.30
2023-01-12T00:44:54.153Z,9.32
2023-01-12T00:47:20.715Z,9.34
2023-01-12T00:49:47.451Z,9.33
2023-01-12T00:52:29.357Z,9.31
2023-01-12T00:54:57.481Z,9.32
2023-01-12T00:57:24.077Z,9.30
2023-01-12T00:59:51.682Z,9.31
2023-01-12T01:02:23.066Z,9.37
2023-01-12T01:04:50.535Z,9.35
2023-01-12T01:07:18.391Z,9.33
2023-01-12T01:09:45.076Z,9.35
2023-01-12T01:12:11.775Z,9.31
2023-01-12T01:14:40.845Z,9.36
2023-01-12T01:17:07.687Z,9.31
2023-01-12T01:19:34.239Z,9.37
2023-01-12T01:22:00.822Z,9.36
2023-01-12T01:24:27.527Z,9.39
2023-01-12T01:26:54.056Z,9.28
2023-01-12T01:29:20.777Z,9.39
2023-01-12T01:31:50.119Z,9.38
2023-01-12T01:34:16.717Z,9.39
2023-01-12T01:36:48.103Z,9.38
2023-01-12T01:39:14.618Z,9.39
2023-01-12T01:41:43.559Z,9.38
2023-01-12T01:44:29.049Z,9.38
2023-01-12T01:47:00.774Z,9.26
2023-01-12T01:49:48.630Z,9.38
2023-01-12T01:52:23.858Z,9.35
2023-01-12T01:55:01.704Z,9.36
2023-01-12T01:57:36.944Z,9.36
2023-01-12T02:00:12.758Z,9.34
2023-01-12T02:02:42.256Z,9.33
2023-01-12T02:05:09.403Z,9.23
2023-01-12T02:07:36.183Z,9.35
2023-01-12T02:10:03.880Z,9.28
2023-01-12T02:12:48.833Z,9.25
2023-01-12T02:15:34.247Z,9.34
2023-01-12T02:18:10.820Z,9.35
2023-01-12T02:21:10.337Z,9.32
2023-01-12T02:24:01.514Z,9.32
2023-01-12T02:26:47.803Z,9.31
2023-01-12T02:29:20.467Z,9.29
2023-01-12T02:32:26.396Z,9.28
2023-01-12T02:35:17.021Z,9.28
2023-01-12T02:38:08.230Z,9.29
2023-01-12T02:40:48.015Z,9.29
2023-01-12T02:43:35.177Z,9.27
2023-01-12T02:46:13.416Z,9.27
2023-01-12T02:48:51.409Z,9.26
2023-01-12T02:51:23.690Z,9.27
2023-01-12T02:53:53.825Z,9.27
2023-01-12T02:56:30.013Z,9.26
2023-01-12T02:59:02.231Z,9.27
2023-01-12T03:01:30.373Z,9.28
2023-01-12T03:04:01.979Z,9.26
2023-01-12T03:06:48.118Z,9.28
2023-01-12T03:09:17.895Z,9.24
2023-01-12T03:11:48.846Z,9.26
2023-01-12T03:14:17.421Z,9.28
2023-01-12T03:16:46.507Z,9.25
2023-01-12T03:19:21.680Z,9.27
2023-01-12T03:21:53.630Z,9.22
2023-01-12T03:24:50.621Z,9.28
2023-01-12T03:27:28.622Z,9.27
2023-01-12T03:30:04.514Z,9.29
2023-01-12T03:32:31.096Z,9.27
2023-01-12T03:34:59.160Z,9.29
2023-01-12T03:37:39.592Z,9.27
2023-01-12T03:40:29.010Z,9.30
2023-01-12T03:43:24.106Z,9.31
2023-01-12T03:45:58.776Z,9.28
2023-01-12T03:48:37.570Z,9.28
2023-01-12T03:51:14.349Z,9.27
2023-01-12T03:53:45.335Z,9.31
2023-01-12T03:56:14.051Z,9.30
2023-01-12T03:58:41.370Z,9.26
2023-01-12T04:01:08.117Z,9.29
2023-01-12T04:03:35.014Z,9.26
2023-01-12T04:06:01.568Z,9.27
2023-01-12T04:08:31.662Z,9.29
2023-01-12T04:10:58.329Z,9.27
2023-01-12T04:13:24.941Z,9.22
2023-01-12T04:15:51.724Z,9.22
2023-01-12T04:18:18.303Z,9.19
2023-01-12T04:20:46.871Z,9.29
2023-01-12T04:23:13.421Z,9.23
2023-01-12T04:25:42.264Z,9.32
2023-01-12T04:28:08.849Z,9.21
2023-01-12T04:30:38.388Z,9.35
2023-01-12T04:33:11.506Z,9.33
2023-01-12T04:35:38.211Z,9.34
2023-01-12T04:38:08.995Z,9.29
2023-01-12T04:40:35.599Z,9.35
2023-01-12T04:43:02.308Z,9.23
2023-01-12T04:45:31.632Z,9.35
2023-01-12T04:48:10.161Z,9.35
2023-01-12T04:50:38.171Z,9.37
2023-01-12T04:53:10.425Z,9.38
2023-01-12T04:55:38.199Z,9.31
2023-01-12T04:58:04.778Z,9.36
2023-01-12T05:00:34.340Z,9.37
2023-01-12T05:03:03.789Z,9.34
2023-01-12T05:05:32.490Z,9.38
2023-01-12T05:08:21.349Z,9.33
2023-01-12T05:10:55.875Z,9.36
2023-01-12T05:13:24.159Z,9.36
2023-01-12T05:15:50.702Z,9.32
2023-01-12T05:18:17.254Z,9.36
2023-01-12T05:20:43.847Z,9.29
2023-01-12T05:23:10.414Z,9.37
2023-01-12T05:25:39.353Z,9.34
2023-01-12T05:28:05.984Z,9.37
2023-01-12T05:30:34.806Z,9.37
2023-01-12T05:33:01.537Z,9.37
2023-01-12T05:35:30.163Z,9.37
2023-01-12T05:37:59.058Z,9.31
2023-01-12T05:40:25.626Z,9.37
2023-01-12T05:43:11.284Z,9.39
2023-01-12T05:45:38.106Z,9.40
2023-01-12T05:48:05.320Z,9.38
2023-01-12T05:50:33.998Z,9.37
2023-01-12T05:53:02.796Z,9.39
2023-01-12T05:55:29.609Z,9.37
2023-01-12T05:57:56.174Z,9.33
2023-01-12T06:00:23.021Z,9.41
2023-01-12T06:02:51.778Z,9.42
2023-01-12T06:05:21.968Z,9.39
2023-01-12T06:07:48.547Z,9.33
2023-01-12T06:10:15.228Z,9.46
2023-01-12T06:13:00.230Z,9.46
2023-01-12T06:15:26.836Z,9.45
2023-01-12T06:17:53.566Z,9.47
2023-01-12T06:20:22.453Z,9.48
2023-01-12T06:22:51.239Z,9.45
2023-01-12T06:25:20.255Z,9.49
2023-01-12T06:27:46.826Z,9.48
2023-01-12T06:30:13.689Z,9.48
2023-01-12T06:32:42.559Z,9.46
2023-01-12T06:35:18.526Z,9.55
2023-01-12T06:37:52.905Z,9.55
2023-01-12T06:40:19.477Z,9.55
2023-01-12T06:42:48.348Z,9.51
2023-01-12T06:45:14.932Z,9.55
2023-01-12T06:47:46.058Z,9.57
2023-01-12T06:50:13.278Z,9.60
2023-01-12T06:52:42.062Z,9.60
2023-01-12T06:55:09.070Z,9.63
2023-01-12T06:57:35.650Z,9.63
2023-01-12T07:00:05.114Z,9.65
2023-01-12T07:02:33.964Z,9.66
2023-01-12T07:05:05.323Z,9.59
2023-01-12T07:07:34.428Z,9.68
2023-01-12T07:10:01.003Z,9.64
2023-01-12T07:12:27.601Z,9.72
2023-01-12T07:14:56.160Z,9.67
2023-01-12T07:17:22.723Z,9.65
2023-01-12T07:19:49.290Z,9.62
2023-01-12T07:22:18.015Z,9.70
2023-01-12T07:24:44.565Z,9.71
2023-01-12T07:27:11.124Z,9.70
2023-01-12T07:29:37.658Z,9.76
2023-01-12T07:32:04.674Z,9.67
2023-01-12T07:34:33.411Z,9.78
2023-01-12T07:36:59.929Z,9.77
2023-01-12T07:39:26.527Z,9.79
2023-01-12T07:42:14.047Z,9.80
2023-01-12T07:44:42.785Z,9.79
2023-01-12T07:47:09.304Z,9.73
2023-01-12T07:49:36.949Z,9.80
2023-01-12T07:52:06.238Z,9.79
2023-01-12T07:54:33.774Z,9.78
2023-01-12T07:57:02.759Z,9.85
2023-01-12T07:59:29.371Z,9.87
2023-01-12T08:01:55.965Z,9.86
2023-01-12T08:04:23.046Z,9.84
2023-01-12T08:06:49.911Z,9.85
2023-01-12T08:09:23.970Z,9.88
2023-01-12T08:11:50.571Z,9.93
2023-01-12T08:14:28.701Z,9.92
2023-01-12T08:17:01.472Z,9.87
2023-01-12T08:19:38.566Z,9.94
2023-01-12T08:22:10.135Z,9.93
2023-01-12T08:24:46.429Z,10.01
2023-01-12T08:27:13.083Z,10.02
2023-01-12T08:29:47.175Z,10.03
2023-01-12T08:32:17.992Z,10.05
2023-01-12T08:34:48.824Z,9.98
2023-01-12T08:37:19.611Z,10.10
2023-01-12T08:39:47.282Z,10.06
2023-01-12T08:42:13.914Z,10.13
2023-01-12T08:44:40.643Z,10.14
2023-01-12T08:47:16.204Z,10.16
2023-01-12T08:49:46.386Z,10.21
2023-01-12T08:52:16.654Z,10.19
2023-01-12T08:54:43.614Z,10.22
2023-01-12T08:57:10.360Z,10.23
2023-01-12T08:59:36.973Z,10.27
2023-01-12T09:02:04.400Z,10.29
2023-01-12T09:04:33.376Z,10.20
2023-01-12T09:07:00.270Z,10.32
2023-01-12T09:09:27.039Z,10.29
2023-01-12T09:11:55.915Z,10.37
2023-01-12T09:14:22.515Z,10.39
2023-01-12T09:16:49.645Z,10.39
2023-01-12T09:19:16.255Z,10.36
2023-01-12T09:21:43.637Z,10.37
2023-01-12T09:24:11.843Z,10.47
2023-01-12T09:26:40.417Z,10.43
2023-01-12T09:29:07.956Z,10.45
2023-01-12T09:31:36.708Z,10.45
2023-01-12T09:34:03.498Z,10.54
2023-01-12T09:36:34.975Z,10.56
2023-01-12T09:39:02.114Z,10.47
2023-01-12T09:41:50.130Z,10.57
2023-01-12T09:44:38.067Z,10.59
2023-01-12T09:47:12.791Z,10.64
2023-01-12T09:49:45.539Z,10.62
2023-01-12T09:52:26.421Z,10.66
2023-01-12T09:54:53.360Z,10.68
2023-01-12T09:57:57.608Z,10.69
2023-01-12T10:00:28.146Z,10.63
2023-01-12T10:03:06.234Z,10.68
2023-01-12T10:05:47.360Z,10.70
2023-01-12T10:08:41.364Z,10.72
2023-01-12T10:11:17.438Z,10.74
2023-01-12T10:14:05.947Z,10.76
2023-01-12T10:16:57.306Z,10.82
2023-01-12T10:19:50.785Z,10.84
2023-01-12T10:22:39.009Z,10.86
2023-01-12T10:25:14.891Z,10.86
2023-01-12T10:27:44.502Z,10.89
2023-01-12T10:30:17.355Z,10.91
2023-01-12T10:32:44.700Z,10.89
2023-01-12T10:35:17.334Z,10.93
2023-01-12T10:37:52.481Z,10.89
2023-01-12T10:40:30.142Z,10.88
2023-01-12T10:43:41.515Z,10.92
2023-01-12T10:46:17.682Z,10.89
2023-01-12T10:49:15.224Z,10.88
2023-01-12T10:52:02.956Z,10.87
2023-01-12T10:54:32.738Z,10.88
2023-01-12T10:57:22.021Z,10.89
2023-01-12T10:59:59.944Z,10.88
2023-01-12T11:02:43.492Z,10.88
2023-01-12T11:05:37.464Z,10.91
2023-01-12T11:08:26.179Z,10.93
2023-01-12T11:10:52.993Z,10.93
2023-01-12T11:13:25.268Z,10.90
2023-01-12T11:16:21.416Z,10.95
2023-01-12T11:19:17.599Z,11.00
2023-01-12T11:21:53.947Z,11.01
2023-01-12T11:24:35.439Z,11.03
2023-01-12T11:27:11.603Z,11.04
2023-01-12T11:29:55.844Z,11.06
2023-01-12T11:32:30.712Z,11.12
2023-01-12T11:35:10.176Z,11.15
2023-01-12T11:37:42.663Z,11.16
2023-01-12T11:40:25.798Z,11.14
2023-01-12T11:43:13.452Z,11.15
2023-01-12T11:45:52.482Z,11.19
2023-01-12T11:48:30.516Z,11.13
2023-01-12T11:51:01.115Z,11.19
2023-01-12T11:53:28.074Z,11.19
2023-01-12T11:56:01.106Z,11.21
2023-01-12T11:58:36.814Z,11.22
2023-01-12T12:01:36.677Z,11.22
2023-01-12T12:04:41.858Z,11.23
2023-01-12T12:07:35.745Z,11.27
2023-01-12T12:10:17.568Z,11.25
2023-01-12T12:13:02.817Z,11.25
2023-01-12T12:15:48.042Z,11.26
2023-01-12T12:18:23.424Z,11.16
2023-01-12T12:21:30.225Z,11.21
2023-01-12T12:24:29.000Z,11.20
2023-01-12T12:26:58.405Z,11.22
2023-01-12T12:30:01.622Z,11.18
2023-01-12T12:32:45.195Z,11.11
2023-01-12T12:35:33.142Z,11.15
2023-01-12T12:38:22.743Z,11.15
2023-01-12T12:41:14.081Z,11.14
2023-01-12T12:43:59.595Z,11.14
2023-01-12T12:46:47.759Z,11.13
2023-01-12T12:49:23.741Z,11.13
2023-01-12T12:51:51.601Z,11.14
2023-01-12T12:54:20.447Z,11.15
2023-01-12T12:56:48.673Z,11.11
2023-01-12T12:59:33.654Z,11.12
2023-01-12T13:02:02.117Z,11.04
2023-01-12T13:04:44.068Z,11.12
2023-01-12T13:07:19.942Z,11.10
2023-01-12T13:09:48.154Z,11.10
2023-01-12T13:12:33.976Z,11.10
2023-01-12T13:15:22.920Z,11.13
2023-01-12T13:17:52.874Z,11.09
2023-01-12T13:20:26.007Z,11.14
2023-01-12T13:22:56.690Z,11.15
2023-01-12T13:25:23.871Z,11.14
2023-01-12T13:27:59.939Z,11.14
2023-01-12T13:30:26.557Z,11.14
2023-01-12T13:32:53.038Z,11.13
2023-01-12T13:35:27.391Z,11.11
2023-01-12T13:38:12.099Z,11.13
2023-01-12T13:40:38.869Z,11.13
2023-01-12T13:43:31.011Z,11.13
2023-01-12T13:46:09.590Z,11.12
2023-01-12T13:48:38.659Z,11.09
2023-01-12T13:51:12.492Z,11.16
2023-01-12T13:53:39.123Z,11.15
2023-01-12T13:56:08.182Z,11.14
2023-01-12T13:58:43.508Z,11.14
2023-01-12T14:01:27.402Z,11.10
2023-01-12T14:04:03.217Z,11.15
2023-01-12T14:06:50.002Z,11.14
2023-01-12T14:09:42.777Z,11.13
2023-01-12T14:12:50.520Z,11.09
2023-01-12T14:15:43.863Z,11.10
2023-01-12T14:18:16.728Z,11.09
2023-01-12T14:20:49.082Z,11.06
2023-01-12T14:23:19.150Z,11.10
2023-01-12T14:25:47.874Z,11.09
2023-01-12T14:28:19.764Z,11.08
2023-01-12T14:30:52.454Z,11.05
2023-01-12T14:33:23.672Z,11.05
2023-01-12T14:35:55.300Z,11.07
2023-01-12T14:38:27.802Z,11.01
2023-01-12T14:41:27.685Z,11.03
2023-01-12T14:44:13.740Z,10.98
2023-01-12T14:46:49.926Z,11.01
2023-01-12T14:49:31.436Z,11.02
2023-01-12T14:52:00.017Z,11.05
2023-01-12T14:54:31.987Z,11.05
2023-01-12T14:57:09.039Z,11.04
2023-01-12T14:59:46.426Z,11.03
2023-01-12T15:02:19.363Z,11.01
2023-01-12T15:05:25.582Z,11.01
2023-01-12T15:08:02.119Z,11.05
2023-01-12T15:10:35.843Z,10.98
2023-01-12T15:13:21.355Z,11.03
2023-01-12T15:16:06.738Z,11.03
2023-01-12T15:18:53.872Z,11.01
2023-01-12T15:21:40.172Z,11.04
2023-01-12T15:24:54.988Z,11.03
2023-01-12T15:27:23.179Z,11.03
2023-01-12T15:29:49.932Z,11.00
2023-01-12T15:32:27.596Z,11.05
2023-01-12T15:34:59.829Z,11.04
2023-01-12T15:37:28.662Z,11.05
2023-01-12T15:40:01.351Z,11.02
2023-01-12T15:42:30.977Z,11.05
2023-01-12T15:44:57.523Z,11.04
2023-01-12T15:47:24.119Z,11.07
2023-01-12T15:49:53.281Z,10.97
2023-01-12T15:52:27.223Z,11.01
2023-01-12T15:54:54.033Z,11.01
2023-01-12T15:57:23.653Z,11.02
2023-01-12T15:59:50.220Z,11.05
2023-01-12T16:02:25.931Z,11.06
2023-01-12T16:04:52.893Z,11.01
2023-01-12T16:07:19.505Z,11.04
2023-01-12T16:09:47.722Z,11.01
2023-01-12T16:12:18.086Z,11.02
2023-01-12T16:14:46.945Z,11.02
2023-01-12T16:17:15.962Z,11.01
2023-01-12T16:19:42.620Z,11.02
2023-01-12T16:22:14.112Z,11.00
2023-01-12T16:24:41.001Z,10.99
2023-01-12T16:27:07.985Z,10.91
2023-01-12T16:29:34.679Z,11.00
2023-01-12T16:32:01.266Z,11.02
2023-01-12T16:34:27.886Z,11.04
2023-01-12T16:36:54.625Z,11.00
2023-01-12T16:39:24.827Z,11.00
2023-01-12T16:41:53.310Z,11.06
2023-01-12T16:44:19.883Z,11.07
2023-01-12T16:46:48.688Z,11.03
2023-01-12T16:49:15.280Z,11.03
2023-01-12T16:51:44.150Z,11.03
2023-01-12T16:54:10.687Z,11.05
2023-01-12T16:56:39.926Z,11.01
2023-01-12T16:59:08.025Z,11.04
2023-01-12T17:01:35.633Z,10.98
2023-01-12T17:04:02.549Z,11.03
2023-01-12T17:06:30.320Z,11.08
2023-01-12T17:09:04.049Z,11.07
2023-01-12T17:11:30.913Z,11.06
2023-01-12T17:13:58.299Z,11.07
2023-01-12T17:16:30.845Z,11.05
2023-01-12T17:18:57.510Z,11.06
2023-01-12T17:21:24.626Z,11.00
2023-01-12T17:23:52.385Z,11.04
2023-01-12T17:26:19.241Z,11.03
2023-01-12T17:28:50.523Z,11.01
2023-01-12T17:31:18.789Z,11.01
2023-01-12T17:33:46.552Z,11.03
2023-01-12T17:36:13.401Z,11.03
2023-01-12T17:38:40.315Z,11.01
2023-01-12T17:41:31.110Z,11.03
2023-01-12T17:43:58.315Z,11.00
2023-01-12T17:46:24.880Z,11.05
2023-01-12T17:48:51.507Z,11.01
2023-01-12T17:51:20.364Z,11.01
2023-01-12T17:53:46.891Z,11.06
2023-01-12T17:56:13.813Z,11.07
2023-01-12T17:58:42.721Z,11.04
2023-01-12T18:01:13.930Z,11.03
2023-01-12T18:03:40.574Z,11.00
2023-01-12T18:06:15.119Z,11.04
2023-01-12T18:08:49.663Z,11.04
2023-01-12T18:11:16.865Z,11.04
2023-01-12T18:13:44.199Z,11.05
2023-01-12T18:16:13.267Z,11.05
2023-01-12T18:18:42.040Z,11.02
2023-01-12T18:21:14.026Z,11.07
2023-01-12T18:23:43.086Z,10.98
2023-01-12T18:26:15.022Z,11.05
2023-01-12T18:28:41.847Z,11.02
2023-01-12T18:31:11.193Z,11.09
2023-01-12T18:33:37.958Z,11.09
2023-01-12T18:36:14.044Z,11.09
2023-01-12T18:38:43.481Z,11.04
2023-01-12T18:41:28.724Z,11.05
2023-01-12T18:43:55.506Z,11.07
2023-01-12T18:46:42.062Z,11.11
2023-01-12T18:49:10.835Z,11.13
2023-01-12T18:51:55.977Z,11.13
2023-01-12T18:54:22.645Z,11.10
2023-01-12T18:56:49.998Z,11.04
2023-01-12T18:59:16.966Z,11.08
2023-01-12T19:01:43.748Z,11.08
2023-01-12T19:04:15.033Z,11.09
2023-01-12T19:06:41.592Z,11.10
2023-01-12T19:09:26.657Z,11.11
2023-01-12T19:11:53.201Z,10.98
2023-01-12T19:14:38.485Z,11.10
2023-01-12T19:17:23.812Z,11.08
2023-01-12T19:19:50.578Z,11.08
2023-01-12T19:22:35.760Z,11.06
2023-01-12T19:25:20.908Z,11.08
2023-01-12T19:28:06.028Z,11.07
2023-01-12T19:30:34.360Z,11.08
2023-01-12T19:33:11.621Z,11.09
2023-01-12T19:35:41.833Z,11.08
2023-01-12T19:38:09.301Z,11.10
2023-01-12T19:40:49.073Z,11.03
2023-01-12T19:43:21.076Z,11.07
2023-01-12T19:45:55.598Z,11.07
2023-01-12T19:48:25.072Z,11.09
2023-01-12T19:50:53.011Z,11.09
2023-01-12T19:53:26.086Z,11.08
2023-01-12T19:55:52.932Z,11.04
2023-01-12T19:58:22.069Z,11.10
2023-01-12T20:00:50.076Z,11.08
2023-01-12T20:03:22.018Z,11.08
2023-01-12T20:05:51.367Z,11.09
2023-01-12T20:08:19.816Z,11.08
2023-01-12T20:10:46.607Z,11.04
2023-01-12T20:13:14.264Z,11.05
2023-01-12T20:15:43.045Z,11.08
2023-01-12T20:18:09.937Z,11.05
2023-01-12T20:20:36.555Z,11.02
2023-01-12T20:23:03.261Z,11.05
2023-01-12T20:25:30.082Z,11.09
2023-01-12T20:27:57.641Z,11.06
2023-01-12T20:30:37.419Z,11.08
2023-01-12T20:33:07.432Z,11.10
2023-01-12T20:35:35.277Z,11.09
2023-01-12T20:38:04.095Z,11.08
2023-01-12T20:40:30.814Z,11.08
2023-01-12T20:42:57.426Z,11.09
2023-01-12T20:45:24.308Z,11.06
2023-01-12T20:47:50.839Z,11.09
2023-01-12T20:50:18.834Z,11.13
2023-01-12T20:52:48.176Z,11.11
2023-01-12T20:55:15.309Z,11.07
2023-01-12T20:57:41.992Z,11.09
2023-01-12T21:00:13.293Z,11.07
2023-01-12T21:02:44.699Z,11.10
2023-01-12T21:05:11.299Z,11.11
2023-01-12T21:07:37.873Z,11.09
2023-01-12T21:10:09.210Z,11.08
2023-01-12T21:12:37.977Z,11.11
2023-01-12T21:15:05.014Z,11.07
2023-01-12T21:17:31.721Z,11.08
2023-01-12T21:19:58.318Z,11.09
2023-01-12T21:22:27.100Z,11.09
2023-01-12T21:24:53.739Z,11.06
2023-01-12T21:27:20.363Z,11.06
2023-01-12T21:29:49.245Z,10.99
2023-01-12T21:32:15.929Z,10.98
2023-01-12T21:34:42.471Z,10.83
2023-01-12T21:37:09.066Z,11.02
2023-01-12T21:39:35.617Z,11.02
2023-01-12T21:42:20.744Z,11.03
2023-01-12T21:44:47.274Z,11.03
2023-01-12T21:47:16.183Z,10.97
2023-01-12T21:49:42.731Z,11.02
2023-01-12T21:52:09.247Z,11.02
2023-01-12T21:54:38.183Z,11.07
2023-01-12T21:57:07.573Z,11.00
2023-01-12T21:59:34.148Z,11.03
2023-01-12T22:02:01.043Z,11.06
2023-01-12T22:04:27.748Z,11.02
2023-01-12T22:06:54.321Z,11.01
2023-01-12T22:09:21.124Z,11.00
2023-01-12T22:11:47.682Z,10.99
2023-01-12T22:14:14.227Z,10.97
2023-01-12T22:16:42.979Z,10.97
2023-01-12T22:19:12.016Z,11.01
2023-01-12T22:21:38.587Z,11.01
2023-01-12T22:24:07.765Z,10.97
2023-01-12T22:26:37.303Z,10.96
2023-01-12T22:29:03.904Z,10.89
2023-01-12T22:31:30.479Z,10.80
2023-01-12T22:34:05.505Z,10.74
2023-01-12T22:36:35.002Z,10.68
2023-01-12T22:39:01.927Z,10.58
2023-01-12T22:41:28.796Z,10.52
2023-01-12T22:43:55.580Z,10.47
2023-01-12T22:46:24.516Z,10.42
2023-01-12T22:48:55.424Z,10.44
2023-01-12T22:51:24.926Z,10.37
2023-01-12T22:53:55.656Z,10.36
2023-01-12T22:56:22.955Z,10.41
2023-01-12T22:58:51.697Z,10.36
2023-01-12T23:01:20.047Z,10.39
2023-01-12T23:03:48.157Z,10.42
2023-01-12T23:06:17.375Z,10.43
2023-01-12T23:08:44.925Z,10.42
2023-01-12T23:11:12.758Z,10.35
2023-01-12T23:13:41.115Z,10.27
2023-01-12T23:16:09.836Z,10.17
2023-01-12T23:18:39.063Z,10.07
2023-01-12T23:21:27.823Z,10.12
2023-01-12T23:23:58.703Z,10.17
2023-01-12T23:26:31.617Z,10.17
2023-01-12T23:29:00.421Z,10.16
2023-01-12T23:31:30.618Z,10.14
2023-01-12T23:33:59.455Z,10.15
2023-01-12T23:36:28.160Z,10.06
2023-01-12T23:38:59.535Z,9.99
2023-01-12T23:41:30.152Z,9.98
2023-01-12T23:44:01.215Z,9.93
2023-01-12T23:46:30.730Z,9.83
2023-01-12T23:48:57.860Z,9.86
2023-01-12T23:51:26.655Z,9.78
2023-01-12T23:53:54.454Z,9.77
2023-01-12T23:56:23.570Z,9.69
2023-01-12T23:58:50.181Z,9.66
